sensor_id;sensor_type;location;lat;lon;timestamp;temperature;humidity
5779;DHT22;2916;49.798;10.022;2023-12-20T00:01:02;5.20;99.90
5779;DHT22;2916;49.798;10.022;2023-12-20T00:03:29;5.30;99.90
5779;DHT22;2916;49.798;10.022;2023-12-20T00:05:56;5.30;99.90
5779;DHT22;2916;49.798;10.022;2023-12-20T00:08:23;5.30;99.90
5779;DHT22;2916;49.798;10.022;2023-12-20T00:10:50;5.30;99.90
5779;DHT22;2916;49.798;10.022;2023-12-20T00:13:18;5.30;99.90
5779;DHT22;2916;49.798;10.022;2023-12-20T00:15:45;5.30;99.90
5779;DHT22;2916;49.798;10.022;2023-12-20T00:18:12;5.30;99.90
5779;DHT22;2916;49.798;10.022;2023-12-20T00:20:39;5.30;99.90
5779;DHT22;2916;49.798;10.022;2023-12-20T00:23:06;5.30;99.90
5779;DHT22;2916;49.798;10.022;2023-12-20T00:25:33;5.30;99.90
5779;DHT22;2916;49.798;10.022;2023-12-20T00:28:00;5.30;99.90
5779;DHT22;2916;49.798;10.022;2023-12-20T00:30:29;5.30;99.90
5779;DHT22;2916;49.798;10.022;2023-12-20T00:32:56;5.30;99.90
5779;DHT22;2916;49.798;10.022;2023-12-20T00:35:23;5.30;99.90
5779;DHT22;2916;49.798;10.022;2023-12-20T00:37:50;5.30;99.90
5779;DHT22;2916;49.798;10.022;2023-12-20T00:40:17;5.30;99.90
5779;DHT22;2916;49.798;10.022;2023-12-20T00:42:44;5.30;99.90
5779;DHT22;2916;49.798;10.022;2023-12-20T00:45:12;5.30;99.90
5779;DHT22;2916;49.798;10.022;2023-12-20T00:47:41;5.30;99.90
5779;DHT22;2916;49.798;10.022;2023-12-20T00:50:09;5.40;99.90
5779;DHT22;2916;49.798;10.022;2023-12-20T00:52:36;5.40;99.90
5779;DHT22;2916;49.798;10.022;2023-12-20T00:55:03;5.40;99.90
5779;DHT22;2916;49.798;10.022;2023-12-20T00:57:30;5.40;99.90
5779;DHT22;2916;49.798;10.022;2023-12-20T00:59:57;5.40;99.90
5779;DHT22;2916;49.798;10.022;2023-12-20T01:02:24;5.40;99.90
5779;DHT22;2916;49.798;10.022;2023-12-20T01:04:53;5.50;99.90
5779;DHT22;2916;49.798;10.022;2023-12-20T01:07:19;5.50;99.90
5779;DHT22;2916;49.798;10.022;2023-12-20T01:09:46;5.40;99.90
5779;DHT22;2916;49.798;10.022;2023-12-20T01:12:13;5.50;99.90
5779;DHT22;2916;49.798;10.022;2023-12-20T01:14:40;5.50;99.90
5779;DHT22;2916;49.798;10.022;2023-12-20T01:17:07;5.50;99.90
5779;DHT22;2916;49.798;10.022;2023-12-20T01:19:35;5.50;99.90
5779;DHT22;2916;49.798;10.022;2023-12-20T01:22:03;5.50;99.90
5779;DHT22;2916;49.798;10.022;2023-12-20T01:24:30;5.50;99.90
5779;DHT22;2916;49.798;10.022;2023-12-20T01:26:58;5.50;99.90
5779;DHT22;2916;49.798;10.022;2023-12-20T01:29:25;5.40;99.90
5779;DHT22;2916;49.798;10.022;2023-12-20T01:31:52;5.40;99.90
5779;DHT22;2916;49.798;10.022;2023-12-20T01:34:18;5.40;99.90
5779;DHT22;2916;49.798;10.022;2023-12-20T01:36:45;5.40;99.90
5779;DHT22;2916;49.798;10.022;2023-12-20T01:39:14;5.40;99.90
5779;DHT22;2916;49.798;10.022;2023-12-20T01:41:40;5.40;99.90
5779;DHT22;2916;49.798;10.022;2023-12-20T01:44:07;5.40;99.90
5779;DHT22;2916;49.798;10.022;2023-12-20T01:46:34;5.40;99.90
5779;DHT22;2916;49.798;10.022;2023-12-20T01:49:01;5.40;99.90
5779;DHT22;2916;49.798;10.022;2023-12-20T01:51:29;5.40;99.90
5779;DHT22;2916;49.798;10.022;2023-12-20T01:53:58;5.30;99.90
5779;DHT22;2916;49.798;10.022;2023-12-20T01:56:28;5.30;99.90
5779;DHT22;2916;49.798;10.022;2023-12-20T01:58:56;5.40;99.90
5779;DHT22;2916;49.798;10.022;2023-12-20T02:01:23;5.30;99.90
5779;DHT22;2916;49.798;10.022;2023-12-20T02:03:51;5.30;99.90
5779;DHT22;2916;49.798;10.022;2023-12-20T02:06:18;5.30;99.90
5779;DHT22;2916;49.798;10.022;2023-12-20T02:08:48;5.20;99.90
5779;DHT22;2916;49.798;10.022;2023-12-20T02:11:16;5.20;99.90
5779;DHT22;2916;49.798;10.022;2023-12-20T02:13:44;5.20;99.90
5779;DHT22;2916;49.798;10.022;2023-12-20T02:16:11;5.20;99.90
5779;DHT22;2916;49.798;10.022;2023-12-20T02:18:39;5.20;99.90
5779;DHT22;2916;49.798;10.022;2023-12-20T02:21:06;5.20;99.90
5779;DHT22;2916;49.798;10.022;2023-12-20T02:23:34;5.20;99.90
5779;DHT22;2916;49.798;10.022;2023-12-20T02:26:01;5.20;99.90
5779;DHT22;2916;49.798;10.022;2023-12-20T02:28:29;5.20;99.90
5779;DHT22;2916;49.798;10.022;2023-12-20T02:30:57;5.10;99.90
5779;DHT22;2916;49.798;10.022;2023-12-20T02:33:24;5.10;99.90
5779;DHT22;2916;49.798;10.022;2023-12-20T02:35:51;5.20;99.90
5779;DHT22;2916;49.798;10.022;2023-12-20T02:38:18;5.20;99.90
5779;DHT22;2916;49.798;10.022;2023-12-20T02:40:46;5.10;99.90
5779;DHT22;2916;49.798;10.022;2023-12-20T02:43:13;5.10;99.90
5779;DHT22;2916;49.798;10.022;2023-12-20T02:45:40;5.20;99.90
5779;DHT22;2916;49.798;10.022;2023-12-20T02:48:07;5.10;99.90
5779;DHT22;2916;49.798;10.022;2023-12-20T02:50:34;5.10;99.90
5779;DHT22;2916;49.798;10.022;2023-12-20T02:53:01;5.10;99.90
5779;DHT22;2916;49.798;10.022;2023-12-20T02:55:28;5.10;99.90
5779;DHT22;2916;49.798;10.022;2023-12-20T02:57:56;5.10;99.90
5779;DHT22;2916;49.798;10.022;2023-12-20T03:00:23;5.10;99.90
5779;DHT22;2916;49.798;10.022;2023-12-20T03:02:50;5.00;99.90
5779;DHT22;2916;49.798;10.022;2023-12-20T03:05:17;5.10;99.90
5779;DHT22;2916;49.798;10.022;2023-12-20T03:07:43;5.10;99.90
5779;DHT22;2916;49.798;10.022;2023-12-20T03:10:11;5.00;99.90
5779;DHT22;2916;49.798;10.022;2023-12-20T03:12:38;5.00;99.90
5779;DHT22;2916;49.798;10.022;2023-12-20T03:15:08;5.00;99.90
5779;DHT22;2916;49.798;10.022;2023-12-20T03:17:35;5.00;99.90
5779;DHT22;2916;49.798;10.022;2023-12-20T03:20:03;4.90;99.90
5779;DHT22;2916;49.798;10.022;2023-12-20T03:22:30;5.00;99.90
5779;DHT22;2916;49.798;10.022;2023-12-20T03:24:57;4.90;99.90
5779;DHT22;2916;49.798;10.022;2023-12-20T03:27:23;4.90;99.90
5779;DHT22;2916;49.798;10.022;2023-12-20T03:29:50;5.00;99.90
5779;DHT22;2916;49.798;10.022;2023-12-20T03:32:19;4.90;99.90
5779;DHT22;2916;49.798;10.022;2023-12-20T03:34:46;4.90;99.90
5779;DHT22;2916;49.798;10.022;2023-12-20T03:37:13;4.90;99.90
5779;DHT22;2916;49.798;10.022;2023-12-20T03:39:40;4.90;99.90
5779;DHT22;2916;49.798;10.022;2023-12-20T03:42:07;4.90;99.90
5779;DHT22;2916;49.798;10.022;2023-12-20T03:44:34;4.90;99.90
5779;DHT22;2916;49.798;10.022;2023-12-20T03:47:01;4.90;99.90
5779;DHT22;2916;49.798;10.022;2023-12-20T03:49:30;5.00;99.90
5779;DHT22;2916;49.798;10.022;2023-12-20T03:51:56;4.90;99.90
5779;DHT22;2916;49.798;10.022;2023-12-20T03:54:24;5.00;99.90
5779;DHT22;2916;49.798;10.022;2023-12-20T03:56:51;5.00;99.90
5779;DHT22;2916;49.798;10.022;2023-12-20T03:59:18;4.90;99.90
5779;DHT22;2916;49.798;10.022;2023-12-20T04:01:45;4.90;99.90
5779;DHT22;2916;49.798;10.022;2023-12-20T04:04:12;4.90;99.90
5779;DHT22;2916;49.798;10.022;2023-12-20T04:06:41;5.00;99.90
5779;DHT22;2916;49.798;10.022;2023-12-20T04:09:08;4.90;99.90
5779;DHT22;2916;49.798;10.022;2023-12-20T04:11:36;5.00;99.90
5779;DHT22;2916;49.798;10.022;2023-12-20T04:14:03;4.90;99.90
5779;DHT22;2916;49.798;10.022;2023-12-20T04:16:31;4.90;99.90
5779;DHT22;2916;49.798;10.022;2023-12-20T04:18:58;4.90;99.90
5779;DHT22;2916;49.798;10.022;2023-12-20T04:21:24;4.90;99.90
5779;DHT22;2916;49.798;10.022;2023-12-20T04:23:53;5.00;99.90
5779;DHT22;2916;49.798;10.022;2023-12-20T04:26:20;4.90;99.90
5779;DHT22;2916;49.798;10.022;2023-12-20T04:28:47;4.90;99.90
5779;DHT22;2916;49.798;10.022;2023-12-20T04:31:14;4.90;99.90
5779;DHT22;2916;49.798;10.022;2023-12-20T04:33:41;4.90;99.90
5779;DHT22;2916;49.798;10.022;2023-12-20T04:36:08;4.90;99.90
5779;DHT22;2916;49.798;10.022;2023-12-20T04:38:35;4.90;99.90
5779;DHT22;2916;49.798;10.022;2023-12-20T04:41:04;4.90;99.90
5779;DHT22;2916;49.798;10.022;2023-12-20T04:43:31;4.90;99.90
5779;DHT22;2916;49.798;10.022;2023-12-20T04:45:58;4.90;99.90
5779;DHT22;2916;49.798;10.022;2023-12-20T04:48:24;4.80;99.90
5779;DHT22;2916;49.798;10.022;2023-12-20T04:50:51;4.90;99.90
5779;DHT22;2916;49.798;10.022;2023-12-20T04:53:18;4.80;99.90
5779;DHT22;2916;49.798;10.022;2023-12-20T04:55:45;4.90;99.90
5779;DHT22;2916;49.798;10.022;2023-12-20T04:58:13;4.90;99.90
5779;DHT22;2916;49.798;10.022;2023-12-20T05:00:40;4.90;99.90
5779;DHT22;2916;49.798;10.022;2023-12-20T05:03:07;4.90;99.90
5779;DHT22;2916;49.798;10.022;2023-12-20T05:05:34;5.00;99.90
5779;DHT22;2916;49.798;10.022;2023-12-20T05:08:01;5.00;99.90
5779;DHT22;2916;49.798;10.022;2023-12-20T05:10:29;5.00;99.90
5779;DHT22;2916;49.798;10.022;2023-12-20T05:12:56;5.00;99.90
5779;DHT22;2916;49.798;10.022;2023-12-20T05:15:24;5.00;99.90
5779;DHT22;2916;49.798;10.022;2023-12-20T05:17:51;5.00;99.90
5779;DHT22;2916;49.798;10.022;2023-12-20T05:20:18;5.00;99.90
5779;DHT22;2916;49.798;10.022;2023-12-20T05:22:45;5.00;99.90
5779;DHT22;2916;49.798;10.022;2023-12-20T05:25:13;5.00;99.90
5779;DHT22;2916;49.798;10.022;2023-12-20T05:27:39;5.00;99.90
5779;DHT22;2916;49.798;10.022;2023-12-20T05:30:07;5.00;99.90
5779;DHT22;2916;49.798;10.022;2023-12-20T05:32:36;5.00;99.90
5779;DHT22;2916;49.798;10.022;2023-12-20T05:35:03;5.00;99.90
5779;DHT22;2916;49.798;10.022;2023-12-20T05:37:30;5.00;99.90
5779;DHT22;2916;49.798;10.022;2023-12-20T05:39:57;5.00;99.90
5779;DHT22;2916;49.798;10.022;2023-12-20T05:42:24;5.00;99.90
5779;DHT22;2916;49.798;10.022;2023-12-20T05:44:51;5.10;99.90
5779;DHT22;2916;49.798;10.022;2023-12-20T05:47:17;5.10;99.90
5779;DHT22;2916;49.798;10.022;2023-12-20T05:49:45;5.10;99.90
5779;DHT22;2916;49.798;10.022;2023-12-20T05:52:12;5.10;99.90
5779;DHT22;2916;49.798;10.022;2023-12-20T05:54:39;5.10;99.90
5779;DHT22;2916;49.798;10.022;2023-12-20T05:57:06;5.10;99.90
5779;DHT22;2916;49.798;10.022;2023-12-20T05:59:33;5.10;99.90
5779;DHT22;2916;49.798;10.022;2023-12-20T06:02:00;5.10;99.90
5779;DHT22;2916;49.798;10.022;2023-12-20T06:04:26;5.10;99.90
5779;DHT22;2916;49.798;10.022;2023-12-20T06:06:55;5.10;99.90
5779;DHT22;2916;49.798;10.022;2023-12-20T06:09:22;5.10;99.90
5779;DHT22;2916;49.798;10.022;2023-12-20T06:11:49;5.20;99.90
5779;DHT22;2916;49.798;10.022;2023-12-20T06:14:16;5.20;99.90
5779;DHT22;2916;49.798;10.022;2023-12-20T06:16:43;5.20;99.90
5779;DHT22;2916;49.798;10.022;2023-12-20T06:19:11;5.20;99.90
5779;DHT22;2916;49.798;10.022;2023-12-20T06:21:38;5.20;99.90
5779;DHT22;2916;49.798;10.022;2023-12-20T06:24:06;5.30;99.90
5779;DHT22;2916;49.798;10.022;2023-12-20T06:26:33;5.20;99.90
5779;DHT22;2916;49.798;10.022;2023-12-20T06:29:00;5.30;99.90
5779;DHT22;2916;49.798;10.022;2023-12-20T06:31:27;5.30;99.90
5779;DHT22;2916;49.798;10.022;2023-12-20T06:33:54;5.30;99.90
5779;DHT22;2916;49.798;10.022;2023-12-20T06:36:23;5.30;99.90
5779;DHT22;2916;49.798;10.022;2023-12-20T06:38:50;5.30;99.90
5779;DHT22;2916;49.798;10.022;2023-12-20T06:41:18;5.20;99.90
5779;DHT22;2916;49.798;10.022;2023-12-20T06:43:45;5.20;99.90
5779;DHT22;2916;49.798;10.022;2023-12-20T06:46:12;5.20;99.90
5779;DHT22;2916;49.798;10.022;2023-12-20T06:48:39;5.20;99.90
5779;DHT22;2916;49.798;10.022;2023-12-20T06:51:06;5.20;99.90
5779;DHT22;2916;49.798;10.022;2023-12-20T06:53:33;5.20;99.90
5779;DHT22;2916;49.798;10.022;2023-12-20T06:56:00;5.30;99.90
5779;DHT22;2916;49.798;10.022;2023-12-20T06:58:29;5.30;99.90
5779;DHT22;2916;49.798;10.022;2023-12-20T07:00:56;5.30;99.90
5779;DHT22;2916;49.798;10.022;2023-12-20T07:03:23;5.30;99.90
5779;DHT22;2916;49.798;10.022;2023-12-20T07:05:50;5.30;99.90
5779;DHT22;2916;49.798;10.022;2023-12-20T07:08:17;5.40;99.90
5779;DHT22;2916;49.798;10.022;2023-12-20T07:10:44;5.40;99.90
5779;DHT22;2916;49.798;10.022;2023-12-20T07:13:11;5.40;99.90
5779;DHT22;2916;49.798;10.022;2023-12-20T07:15:41;5.40;99.90
5779;DHT22;2916;49.798;10.022;2023-12-20T07:18:08;5.40;99.90
5779;DHT22;2916;49.798;10.022;2023-12-20T07:20:34;5.40;99.90
5779;DHT22;2916;49.798;10.022;2023-12-20T07:23:01;5.40;99.90
5779;DHT22;2916;49.798;10.022;2023-12-20T07:25:28;5.40;99.90
5779;DHT22;2916;49.798;10.022;2023-12-20T07:27:57;5.40;99.90
5779;DHT22;2916;49.798;10.022;2023-12-20T07:30:24;5.50;99.90
5779;DHT22;2916;49.798;10.022;2023-12-20T07:32:53;5.50;99.90
5779;DHT22;2916;49.798;10.022;2023-12-20T07:35:19;5.50;99.90
5779;DHT22;2916;49.798;10.022;2023-12-20T07:37:46;5.40;99.90
5779;DHT22;2916;49.798;10.022;2023-12-20T07:40:13;5.40;99.90
5779;DHT22;2916;49.798;10.022;2023-12-20T07:42:42;5.40;99.90
5779;DHT22;2916;49.798;10.022;2023-12-20T07:45:09;5.30;99.90
5779;DHT22;2916;49.798;10.022;2023-12-20T07:47:37;5.20;99.90
5779;DHT22;2916;49.798;10.022;2023-12-20T07:50:06;5.20;99.90
5779;DHT22;2916;49.798;10.022;2023-12-20T07:52:33;5.20;99.90
5779;DHT22;2916;49.798;10.022;2023-12-20T07:55:00;5.20;99.90
5779;DHT22;2916;49.798;10.022;2023-12-20T07:57:28;5.20;99.90
5779;DHT22;2916;49.798;10.022;2023-12-20T07:59:55;5.10;99.90
5779;DHT22;2916;49.798;10.022;2023-12-20T08:02:22;5.10;99.90
5779;DHT22;2916;49.798;10.022;2023-12-20T08:04:49;5.20;99.90
5779;DHT22;2916;49.798;10.022;2023-12-20T08:07:17;5.20;99.90
5779;DHT22;2916;49.798;10.022;2023-12-20T08:09:44;5.10;99.90
5779;DHT22;2916;49.798;10.022;2023-12-20T08:12:11;5.20;99.90
5779;DHT22;2916;49.798;10.022;2023-12-20T08:14:38;5.20;99.90
5779;DHT22;2916;49.798;10.022;2023-12-20T08:17:05;5.20;99.90
5779;DHT22;2916;49.798;10.022;2023-12-20T08:19:32;5.20;99.90
5779;DHT22;2916;49.798;10.022;2023-12-20T08:21:59;5.20;99.70
5779;DHT22;2916;49.798;10.022;2023-12-20T08:24:27;5.30;99.20
5779;DHT22;2916;49.798;10.022;2023-12-20T08:26:54;5.30;96.90
5779;DHT22;2916;49.798;10.022;2023-12-20T08:29:21;5.30;95.80
5779;DHT22;2916;49.798;10.022;2023-12-20T08:31:52;5.30;94.50
5779;DHT22;2916;49.798;10.022;2023-12-20T08:34:19;5.30;94.50
5779;DHT22;2916;49.798;10.022;2023-12-20T08:36:46;5.40;93.90
5779;DHT22;2916;49.798;10.022;2023-12-20T08:39:12;5.20;85.90
5779;DHT22;2916;49.798;10.022;2023-12-20T08:41:41;5.30;89.10
5779;DHT22;2916;49.798;10.022;2023-12-20T08:44:08;5.30;89.90
5779;DHT22;2916;49.798;10.022;2023-12-20T08:46:35;5.30;88.90
5779;DHT22;2916;49.798;10.022;2023-12-20T08:49:02;5.40;90.40
5779;DHT22;2916;49.798;10.022;2023-12-20T08:51:29;5.50;88.90
5779;DHT22;2916;49.798;10.022;2023-12-20T08:53:56;5.50;89.90
5779;DHT22;2916;49.798;10.022;2023-12-20T08:56:23;5.40;88.40
5779;DHT22;2916;49.798;10.022;2023-12-20T08:58:51;5.40;85.90
5779;DHT22;2916;49.798;10.022;2023-12-20T09:01:22;5.50;83.90
5779;DHT22;2916;49.798;10.022;2023-12-20T09:03:53;5.50;80.00
5779;DHT22;2916;49.798;10.022;2023-12-20T09:06:20;5.50;77.70
5779;DHT22;2916;49.798;10.022;2023-12-20T09:08:47;5.50;74.20
5779;DHT22;2916;49.798;10.022;2023-12-20T09:11:14;5.40;70.30
5779;DHT22;2916;49.798;10.022;2023-12-20T09:13:43;5.40;67.50
5779;DHT22;2916;49.798;10.022;2023-12-20T09:16:11;5.30;65.70
5779;DHT22;2916;49.798;10.022;2023-12-20T09:18:39;5.40;67.20
5779;DHT22;2916;49.798;10.022;2023-12-20T09:21:06;5.40;63.20
5779;DHT22;2916;49.798;10.022;2023-12-20T09:23:32;5.50;63.50
5779;DHT22;2916;49.798;10.022;2023-12-20T09:25:59;5.60;53.60
5779;DHT22;2916;49.798;10.022;2023-12-20T09:28:26;5.60;52.40
5779;DHT22;2916;49.798;10.022;2023-12-20T09:30:53;5.60;46.80
5779;DHT22;2916;49.798;10.022;2023-12-20T09:33:21;5.60;46.60
5779;DHT22;2916;49.798;10.022;2023-12-20T09:35:50;5.60;41.80
5779;DHT22;2916;49.798;10.022;2023-12-20T09:38:17;5.70;42.70
5779;DHT22;2916;49.798;10.022;2023-12-20T09:40:44;5.80;44.00
5779;DHT22;2916;49.798;10.022;2023-12-20T09:43:14;5.90;42.10
5779;DHT22;2916;49.798;10.022;2023-12-20T09:45:45;5.90;35.10
5779;DHT22;2916;49.798;10.022;2023-12-20T09:48:12;6.10;29.00
5779;DHT22;2916;49.798;10.022;2023-12-20T09:50:42;6.10;31.00
5779;DHT22;2916;49.798;10.022;2023-12-20T09:53:11;6.10;30.00
5779;DHT22;2916;49.798;10.022;2023-12-20T09:55:39;6.00;27.10
5779;DHT22;2916;49.798;10.022;2023-12-20T09:58:07;6.00;27.20
5779;DHT22;2916;49.798;10.022;2023-12-20T10:00:34;6.00;29.90
5779;DHT22;2916;49.798;10.022;2023-12-20T10:03:02;6.10;28.80
5779;DHT22;2916;49.798;10.022;2023-12-20T10:05:31;6.10;26.50
5779;DHT22;2916;49.798;10.022;2023-12-20T10:08:00;6.10;26.60
5779;DHT22;2916;49.798;10.022;2023-12-20T10:10:27;6.20;26.60
5779;DHT22;2916;49.798;10.022;2023-12-20T10:13:04;6.10;26.50
5779;DHT22;2916;49.798;10.022;2023-12-20T10:15:32;6.10;26.50
5779;DHT22;2916;49.798;10.022;2023-12-20T10:18:00;6.20;22.00
5779;DHT22;2916;49.798;10.022;2023-12-20T10:20:27;6.20;16.10
5779;DHT22;2916;49.798;10.022;2023-12-20T10:22:55;6.20;17.40
5779;DHT22;2916;49.798;10.022;2023-12-20T10:25:23;6.20;16.80
5779;DHT22;2916;49.798;10.022;2023-12-20T10:28:09;6.20;19.30
5779;DHT22;2916;49.798;10.022;2023-12-20T10:30:36;6.30;17.00
5779;DHT22;2916;49.798;10.022;2023-12-20T10:33:05;6.30;18.10
5779;DHT22;2916;49.798;10.022;2023-12-20T10:35:33;6.40;19.00
5779;DHT22;2916;49.798;10.022;2023-12-20T10:38:03;6.40;20.80
5779;DHT22;2916;49.798;10.022;2023-12-20T10:40:31;6.40;18.00
5779;DHT22;2916;49.798;10.022;2023-12-20T10:43:02;6.40;10.70
5779;DHT22;2916;49.798;10.022;2023-12-20T10:45:29;6.50;13.60
5779;DHT22;2916;49.798;10.022;2023-12-20T10:47:57;6.50;12.30
5779;DHT22;2916;49.798;10.022;2023-12-20T10:50:26;6.60;12.00
5779;DHT22;2916;49.798;10.022;2023-12-20T10:52:54;6.50;7.50
5779;DHT22;2916;49.798;10.022;2023-12-20T10:55:22;6.60;11.50
5779;DHT22;2916;49.798;10.022;2023-12-20T10:57:51;6.50;8.50
5779;DHT22;2916;49.798;10.022;2023-12-20T11:00:19;6.60;4.90
5779;DHT22;2916;49.798;10.022;2023-12-20T11:02:49;6.60;9.00
5779;DHT22;2916;49.798;10.022;2023-12-20T11:05:25;6.60;6.80
5779;DHT22;2916;49.798;10.022;2023-12-20T11:07:59;6.60;4.80
5779;DHT22;2916;49.798;10.022;2023-12-20T11:10:31;6.60;7.40
5779;DHT22;2916;49.798;10.022;2023-12-20T11:13:08;6.60;6.00
5779;DHT22;2916;49.798;10.022;2023-12-20T11:15:36;6.50;9.50
5779;DHT22;2916;49.798;10.022;2023-12-20T11:18:04;6.50;7.80
5779;DHT22;2916;49.798;10.022;2023-12-20T11:20:36;6.50;8.50
5779;DHT22;2916;49.798;10.022;2023-12-20T11:23:04;6.40;14.10
5779;DHT22;2916;49.798;10.022;2023-12-20T11:25:45;6.40;19.50
5779;DHT22;2916;49.798;10.022;2023-12-20T11:28:14;6.40;21.00
5779;DHT22;2916;49.798;10.022;2023-12-20T11:30:46;6.40;18.80
5779;DHT22;2916;49.798;10.022;2023-12-20T11:33:14;6.40;18.50
5779;DHT22;2916;49.798;10.022;2023-12-20T11:35:42;6.50;20.80
5779;DHT22;2916;49.798;10.022;2023-12-20T11:38:09;6.50;17.60
5779;DHT22;2916;49.798;10.022;2023-12-20T11:40:37;6.50;13.00
5779;DHT22;2916;49.798;10.022;2023-12-20T11:43:04;6.50;7.30
5779;DHT22;2916;49.798;10.022;2023-12-20T11:45:33;6.50;8.30
5779;DHT22;2916;49.798;10.022;2023-12-20T11:48:01;6.50;10.00
5779;DHT22;2916;49.798;10.022;2023-12-20T11:50:29;6.50;4.70
5779;DHT22;2916;49.798;10.022;2023-12-20T11:52:56;6.40;1.00
5779;DHT22;2916;49.798;10.022;2023-12-20T11:55:24;6.50;1.00
5779;DHT22;2916;49.798;10.022;2023-12-20T11:57:51;6.50;1.00
5779;DHT22;2916;49.798;10.022;2023-12-20T12:00:18;6.60;1.00
5779;DHT22;2916;49.798;10.022;2023-12-20T12:02:57;6.60;1.00
5779;DHT22;2916;49.798;10.022;2023-12-20T12:05:24;6.60;1.00
5779;DHT22;2916;49.798;10.022;2023-12-20T12:07:51;6.60;1.00
5779;DHT22;2916;49.798;10.022;2023-12-20T12:10:18;6.70;1.00
5779;DHT22;2916;49.798;10.022;2023-12-20T12:12:45;6.60;1.00
5779;DHT22;2916;49.798;10.022;2023-12-20T12:15:12;6.60;1.00
5779;DHT22;2916;49.798;10.022;2023-12-20T12:17:39;6.60;1.00
5779;DHT22;2916;49.798;10.022;2023-12-20T12:20:08;6.70;1.00
5779;DHT22;2916;49.798;10.022;2023-12-20T12:22:35;6.70;1.00
5779;DHT22;2916;49.798;10.022;2023-12-20T12:25:13;6.70;1.00
5779;DHT22;2916;49.798;10.022;2023-12-20T12:27:41;6.80;1.00
5779;DHT22;2916;49.798;10.022;2023-12-20T12:30:09;6.80;1.00
5779;DHT22;2916;49.798;10.022;2023-12-20T12:32:38;6.80;1.00
5779;DHT22;2916;49.798;10.022;2023-12-20T12:35:08;6.90;1.00
5779;DHT22;2916;49.798;10.022;2023-12-20T12:37:38;6.90;1.00
5779;DHT22;2916;49.798;10.022;2023-12-20T12:40:07;6.90;1.00
5779;DHT22;2916;49.798;10.022;2023-12-20T12:42:36;6.90;1.00
5779;DHT22;2916;49.798;10.022;2023-12-20T12:45:04;6.90;1.00
5779;DHT22;2916;49.798;10.022;2023-12-20T12:47:31;6.80;1.00
5779;DHT22;2916;49.798;10.022;2023-12-20T12:49:58;6.80;1.00
5779;DHT22;2916;49.798;10.022;2023-12-20T12:52:26;6.80;1.00
5779;DHT22;2916;49.798;10.022;2023-12-20T12:54:53;6.70;1.00
5779;DHT22;2916;49.798;10.022;2023-12-20T12:57:20;6.70;1.00
5779;DHT22;2916;49.798;10.022;2023-12-20T12:59:47;6.60;1.00
5779;DHT22;2916;49.798;10.022;2023-12-20T13:02:14;6.60;1.00
5779;DHT22;2916;49.798;10.022;2023-12-20T13:04:42;6.60;1.00
5779;DHT22;2916;49.798;10.022;2023-12-20T13:07:10;6.60;1.00
5779;DHT22;2916;49.798;10.022;2023-12-20T13:09:39;6.50;1.00
5779;DHT22;2916;49.798;10.022;2023-12-20T13:12:07;6.50;1.00
5779;DHT22;2916;49.798;10.022;2023-12-20T13:14:34;6.60;1.00
5779;DHT22;2916;49.798;10.022;2023-12-20T13:17:02;6.60;1.00
5779;DHT22;2916;49.798;10.022;2023-12-20T13:19:30;6.50;1.00
5779;DHT22;2916;49.798;10.022;2023-12-20T13:21:57;6.50;1.00
5779;DHT22;2916;49.798;10.022;2023-12-20T13:24:24;6.50;1.00
5779;DHT22;2916;49.798;10.022;2023-12-20T13:26:53;6.50;1.00
5779;DHT22;2916;49.798;10.022;2023-12-20T13:29:20;6.40;1.00
5779;DHT22;2916;49.798;10.022;2023-12-20T13:31:47;6.40;1.00
5779;DHT22;2916;49.798;10.022;2023-12-20T13:34:13;6.40;1.00
5779;DHT22;2916;49.798;10.022;2023-12-20T13:36:43;6.40;1.00
5779;DHT22;2916;49.798;10.022;2023-12-20T13:39:13;6.40;1.00
5779;DHT22;2916;49.798;10.022;2023-12-20T13:41:40;6.40;1.00
5779;DHT22;2916;49.798;10.022;2023-12-20T13:44:08;6.40;1.00
5779;DHT22;2916;49.798;10.022;2023-12-20T13:46:36;6.40;1.00
5779;DHT22;2916;49.798;10.022;2023-12-20T13:49:03;6.30;1.00
5779;DHT22;2916;49.798;10.022;2023-12-20T13:51:31;6.40;1.00
5779;DHT22;2916;49.798;10.022;2023-12-20T13:53:58;6.30;1.00
5779;DHT22;2916;49.798;10.022;2023-12-20T13:56:25;6.30;1.00
5779;DHT22;2916;49.798;10.022;2023-12-20T13:58:53;6.30;1.00
5779;DHT22;2916;49.798;10.022;2023-12-20T14:01:22;6.30;1.00
5779;DHT22;2916;49.798;10.022;2023-12-20T14:03:50;6.30;1.00
5779;DHT22;2916;49.798;10.022;2023-12-20T14:06:17;6.30;1.00
5779;DHT22;2916;49.798;10.022;2023-12-20T14:08:44;6.30;1.00
5779;DHT22;2916;49.798;10.022;2023-12-20T14:11:11;6.30;1.00
5779;DHT22;2916;49.798;10.022;2023-12-20T14:13:41;6.30;1.00
5779;DHT22;2916;49.798;10.022;2023-12-20T14:16:09;6.20;1.00
5779;DHT22;2916;49.798;10.022;2023-12-20T14:18:37;6.30;1.00
5779;DHT22;2916;49.798;10.022;2023-12-20T14:21:05;6.30;1.00
5779;DHT22;2916;49.798;10.022;2023-12-20T14:23:33;6.20;1.00
5779;DHT22;2916;49.798;10.022;2023-12-20T14:26:00;6.30;1.00
5779;DHT22;2916;49.798;10.022;2023-12-20T14:28:27;6.20;1.00
5779;DHT22;2916;49.798;10.022;2023-12-20T14:30:54;6.20;1.00
5779;DHT22;2916;49.798;10.022;2023-12-20T14:33:21;6.30;1.00
5779;DHT22;2916;49.798;10.022;2023-12-20T14:35:50;6.30;1.00
5779;DHT22;2916;49.798;10.022;2023-12-20T14:38:18;6.30;1.00
5779;DHT22;2916;49.798;10.022;2023-12-20T14:40:45;6.30;1.00
5779;DHT22;2916;49.798;10.022;2023-12-20T14:43:11;6.30;1.00
5779;DHT22;2916;49.798;10.022;2023-12-20T14:45:38;6.30;1.00
5779;DHT22;2916;49.798;10.022;2023-12-20T14:48:06;6.20;1.00
5779;DHT22;2916;49.798;10.022;2023-12-20T14:50:32;6.30;1.00
5779;DHT22;2916;49.798;10.022;2023-12-20T14:53:00;6.30;1.00
5779;DHT22;2916;49.798;10.022;2023-12-20T14:55:27;6.20;1.00
5779;DHT22;2916;49.798;10.022;2023-12-20T14:57:55;6.10;1.00
5779;DHT22;2916;49.798;10.022;2023-12-20T15:00:22;6.20;1.00
5779;DHT22;2916;49.798;10.022;2023-12-20T15:02:49;6.10;1.00
5779;DHT22;2916;49.798;10.022;2023-12-20T15:05:16;6.10;1.00
5779;DHT22;2916;49.798;10.022;2023-12-20T15:07:43;6.10;1.00
5779;DHT22;2916;49.798;10.022;2023-12-20T15:10:12;6.20;1.00
5779;DHT22;2916;49.798;10.022;2023-12-20T15:12:39;6.20;1.00
5779;DHT22;2916;49.798;10.022;2023-12-20T15:15:07;6.10;1.00
5779;DHT22;2916;49.798;10.022;2023-12-20T15:17:35;6.10;1.00
5779;DHT22;2916;49.798;10.022;2023-12-20T15:20:03;6.10;1.00
5779;DHT22;2916;49.798;10.022;2023-12-20T15:22:30;6.20;1.00
5779;DHT22;2916;49.798;10.022;2023-12-20T15:24:59;6.20;1.00
5779;DHT22;2916;49.798;10.022;2023-12-20T15:27:28;6.10;1.00
5779;DHT22;2916;49.798;10.022;2023-12-20T15:29:55;6.10;1.00
5779;DHT22;2916;49.798;10.022;2023-12-20T15:32:22;6.00;1.00
5779;DHT22;2916;49.798;10.022;2023-12-20T15:34:49;6.00;1.00
5779;DHT22;2916;49.798;10.022;2023-12-20T15:37:17;5.90;1.00
5779;DHT22;2916;49.798;10.022;2023-12-20T15:39:44;5.90;1.00
5779;DHT22;2916;49.798;10.022;2023-12-20T15:42:11;5.90;1.00
5779;DHT22;2916;49.798;10.022;2023-12-20T15:44:40;5.90;1.00
5779;DHT22;2916;49.798;10.022;2023-12-20T15:47:07;5.90;1.00
5779;DHT22;2916;49.798;10.022;2023-12-20T15:49:34;5.90;1.00
5779;DHT22;2916;49.798;10.022;2023-12-20T15:52:01;5.90;1.00
5779;DHT22;2916;49.798;10.022;2023-12-20T15:54:27;5.90;1.00
5779;DHT22;2916;49.798;10.022;2023-12-20T15:56:54;5.90;1.00
5779;DHT22;2916;49.798;10.022;2023-12-20T15:59:21;5.90;1.00
5779;DHT22;2916;49.798;10.022;2023-12-20T16:01:49;5.90;1.00
5779;DHT22;2916;49.798;10.022;2023-12-20T16:04:17;5.90;1.00
5779;DHT22;2916;49.798;10.022;2023-12-20T16:06:44;5.90;1.00
5779;DHT22;2916;49.798;10.022;2023-12-20T16:09:11;5.90;1.00